createdAt,value
2023-01-15T00:01:03.692Z,9.02
2023-01-15T00:03:31.985Z,9.43
2023-01-15T00:06:04.915Z,11.30
2023-01-15T00:08:31.880Z,8.75
2023-01-15T00:10:58.947Z,14.67
2023-01-15T00:13:25.921Z,13.65
2023-01-15T00:15:52.931Z,9.60
2023-01-15T00:18:20.322Z,9.20
2023-01-15T00:20:47.268Z,7.57
2023-01-15T00:23:34.549Z,10.55
2023-01-15T00:26:20.264Z,17.55
2023-01-15T00:28:51.399Z,10.65
2023-01-15T00:31:18.414Z,8.68
2023-01-15T00:33:45.364Z,8.80
2023-01-15T00:36:12.280Z,14.88
2023-01-15T00:38:39.948Z,8.23
2023-01-15T00:41:09.875Z,10.40
2023-01-15T00:43:39.437Z,10.70
2023-01-15T00:46:08.641Z,9.23
2023-01-15T00:48:36.777Z,10.40
2023-01-15T00:51:04.706Z,9.30
2023-01-15T00:53:32.447Z,9.18
2023-01-15T00:56:00.517Z,8.30
2023-01-15T00:58:28.784Z,10.57
2023-01-15T01:01:01.701Z,9.40
2023-01-15T01:03:29.134Z,13.95
2023-01-15T01:06:03.093Z,10.20
2023-01-15T01:08:30.639Z,12.63
2023-01-15T01:11:11.877Z,12.13
2023-01-15T01:13:39.449Z,10.85
2023-01-15T01:16:30.804Z,13.07
2023-01-15T01:19:00.488Z,9.68
2023-01-15T01:21:28.020Z,10.82
2023-01-15T01:23:55.383Z,8.02
2023-01-15T01:26:22.483Z,9.57
2023-01-15T01:28:51.407Z,9.00
2023-01-15T01:31:19.471Z,12.15
2023-01-15T01:33:59.011Z,7.68
2023-01-15T01:36:36.547Z,6.45
2023-01-15T01:39:05.177Z,7.55
2023-01-15T01:41:32.900Z,8.27
2023-01-15T01:44:06.283Z,8.70
2023-01-15T01:46:35.849Z,5.43
2023-01-15T01:49:08.792Z,10.73
2023-01-15T01:51:42.066Z,11.02
2023-01-15T01:54:11.275Z,9.93
2023-01-15T01:56:38.415Z,7.07
2023-01-15T01:59:07.708Z,6.93
2023-01-15T02:01:35.224Z,6.80
2023-01-15T02:04:03.463Z,6.28
2023-01-15T02:06:32.611Z,5.82
2023-01-15T02:09:00.477Z,6.85
2023-01-15T02:11:29.400Z,7.25
2023-01-15T02:14:05.482Z,4.47
2023-01-15T02:16:32.393Z,6.70
2023-01-15T02:19:18.033Z,4.95
2023-01-15T02:21:56.683Z,5.38
2023-01-15T02:24:51.473Z,7.03
2023-01-15T02:30:23.173Z,6.32
2023-01-15T02:33:21.290Z,4.60
2023-01-15T02:36:01.304Z,5.03
2023-01-15T02:38:44.347Z,7.45
2023-01-15T02:41:18.839Z,6.53
2023-01-15T02:43:52.334Z,8.45
2023-01-15T02:46:25.315Z,4.70
2023-01-15T02:48:55.578Z,5.55
2023-01-15T02:51:27.122Z,5.60
2023-01-15T02:53:59.609Z,5.68
2023-01-15T02:56:32.410Z,6.50
2023-01-15T02:59:06.498Z,5.13
2023-01-15T03:01:45.581Z,8.60
2023-01-15T03:04:28.367Z,5.05
2023-01-15T03:07:05.816Z,4.38
2023-01-15T03:09:35.767Z,3.70
2023-01-15T03:12:15.956Z,8.07
2023-01-15T03:14:51.022Z,5.18
2023-01-15T03:17:23.623Z,4.10
2023-01-15T03:19:56.715Z,6.10
2023-01-15T03:22:29.019Z,3.00
2023-01-15T03:25:06.712Z,2.67
2023-01-15T03:27:40.406Z,6.70
2023-01-15T03:30:12.071Z,5.72
2023-01-15T03:32:39.384Z,3.38
2023-01-15T03:35:28.586Z,4.45
2023-01-15T03:37:56.153Z,4.07
2023-01-15T03:40:25.163Z,4.43
2023-01-15T03:43:20.122Z,4.45
2023-01-15T03:45:50.543Z,3.30
2023-01-15T03:48:36.849Z,4.38
2023-01-15T03:51:09.086Z,5.32
2023-01-15T03:53:51.972Z,3.65
2023-01-15T03:56:32.589Z,4.43
2023-01-15T03:59:11.080Z,7.20
2023-01-15T04:01:54.189Z,4.60
2023-01-15T04:04:24.857Z,4.20
2023-01-15T04:06:52.550Z,5.57
2023-01-15T04:09:19.877Z,3.20
2023-01-15T04:11:47.983Z,4.45
2023-01-15T04:14:15.587Z,2.88
2023-01-15T04:16:46.536Z,3.92
2023-01-15T04:19:14.072Z,3.42
2023-01-15T04:22:01.397Z,3.75
2023-01-15T04:24:28.691Z,2.85
2023-01-15T04:26:55.681Z,2.88
2023-01-15T04:29:22.691Z,4.40
2023-01-15T04:31:52.857Z,4.88
2023-01-15T04:34:20.218Z,3.38
2023-01-15T04:36:48.296Z,5.53
2023-01-15T04:39:15.242Z,3.97
2023-01-15T04:42:00.750Z,4.20
2023-01-15T04:44:29.316Z,3.90
2023-01-15T04:46:57.698Z,3.42
2023-01-15T04:49:24.586Z,4.07
2023-01-15T04:51:51.895Z,2.78
2023-01-15T04:54:19.895Z,3.58
2023-01-15T04:56:50.382Z,5.00
2023-01-15T04:59:20.112Z,4.25
2023-01-15T05:02:01.997Z,5.78
2023-01-15T05:04:31.192Z,3.90
2023-01-15T05:06:58.175Z,5.50
2023-01-15T05:09:25.118Z,2.83
2023-01-15T05:11:51.964Z,4.22
2023-01-15T05:14:18.935Z,5.47
2023-01-15T05:16:46.088Z,9.23
2023-01-15T05:19:13.235Z,3.30
2023-01-15T05:21:42.443Z,5.75
2023-01-15T05:24:13.904Z,3.17
2023-01-15T05:26:41.755Z,3.55
2023-01-15T05:29:08.717Z,4.60
2023-01-15T05:31:35.927Z,3.17
2023-01-15T05:34:02.885Z,4.00
2023-01-15T05:36:31.253Z,3.35
2023-01-15T05:39:02.541Z,5.07
2023-01-15T05:41:49.402Z,4.25
2023-01-15T05:44:20.746Z,3.83
2023-01-15T05:46:50.163Z,6.03
2023-01-15T05:49:20.253Z,3.10
2023-01-15T05:51:47.928Z,3.72
2023-01-15T05:54:17.515Z,5.32
2023-01-15T05:56:49.176Z,3.28
2023-01-15T05:59:18.614Z,3.33
2023-01-15T06:01:46.274Z,5.05
2023-01-15T06:04:14.501Z,5.35
2023-01-15T06:06:42.998Z,9.05
2023-01-15T06:09:10.592Z,3.50
2023-01-15T06:11:37.993Z,7.22
2023-01-15T06:14:05.669Z,4.15
2023-01-15T06:16:33.701Z,4.13
2023-01-15T06:19:06.028Z,5.63
2023-01-15T06:21:35.011Z,4.70
2023-01-15T06:24:03.401Z,4.57
2023-01-15T06:26:30.987Z,3.63
2023-01-15T06:28:57.900Z,3.33
2023-01-15T06:31:27.130Z,2.97
2023-01-15T06:33:55.349Z,3.50
2023-01-15T06:36:24.656Z,4.70
2023-01-15T06:38:51.988Z,5.05
2023-01-15T06:41:40.458Z,3.20
2023-01-15T06:44:29.780Z,3.08
2023-01-15T06:47:15.377Z,3.95
2023-01-15T06:49:42.499Z,3.80
2023-01-15T06:52:09.396Z,4.00
2023-01-15T06:54:36.585Z,3.58
2023-01-15T06:57:03.756Z,4.97
2023-01-15T06:59:31.414Z,6.05
2023-01-15T07:01:58.731Z,6.30
2023-01-15T07:04:25.671Z,5.28
2023-01-15T07:06:52.657Z,5.55
2023-01-15T07:09:19.590Z,4.25
2023-01-15T07:11:49.872Z,3.45
2023-01-15T07:14:22.750Z,7.28
2023-01-15T07:16:50.493Z,6.13
2023-01-15T07:19:18.120Z,8.32
2023-01-15T07:21:45.436Z,4.55
2023-01-15T07:24:13.131Z,6.68
2023-01-15T07:26:40.117Z,4.70
2023-01-15T07:29:07.153Z,6.15
2023-01-15T07:31:34.388Z,4.32
2023-01-15T07:34:01.418Z,3.53
2023-01-15T07:36:28.500Z,3.38
2023-01-15T07:38:55.437Z,6.72
2023-01-15T07:41:40.913Z,6.18
2023-01-15T07:44:30.939Z,5.00
2023-01-15T07:47:17.208Z,8.68
2023-01-15T07:49:48.798Z,5.53
2023-01-15T07:52:17.220Z,5.47
2023-01-15T07:54:45.500Z,5.82
2023-01-15T07:57:15.355Z,4.72
2023-01-15T07:59:42.380Z,7.55
2023-01-15T08:02:09.528Z,14.82
2023-01-15T08:04:36.673Z,8.90
2023-01-15T08:07:04.725Z,6.45
2023-01-15T08:09:32.036Z,5.78
2023-01-15T08:12:19.160Z,9.68
2023-01-15T08:15:05.382Z,4.68
2023-01-15T08:17:36.740Z,3.70
2023-01-15T08:20:09.479Z,5.32
2023-01-15T08:22:39.000Z,4.45
2023-01-15T08:25:08.745Z,4.05
2023-01-15T08:27:36.937Z,8.98
2023-01-15T08:30:09.975Z,17.10
2023-01-15T08:32:37.003Z,4.82
2023-01-15T08:35:04.359Z,3.25
2023-01-15T08:37:31.879Z,5.15
2023-01-15T08:39:58.809Z,3.60
2023-01-15T08:42:25.784Z,5.95
2023-01-15T08:44:52.834Z,6.95
2023-01-15T08:47:19.757Z,4.10
2023-01-15T08:49:50.756Z,9.63
2023-01-15T08:52:17.859Z,8.80
2023-01-15T08:54:44.909Z,5.43
2023-01-15T08:57:13.827Z,3.97
2023-01-15T08:59:43.581Z,7.72
2023-01-15T09:02:15.293Z,7.18
2023-01-15T09:04:42.585Z,5.88
2023-01-15T09:07:09.652Z,5.25
2023-01-15T09:09:36.723Z,5.45
2023-01-15T09:12:03.885Z,6.70
2023-01-15T09:14:56.032Z,5.38
2023-01-15T09:17:22.812Z,8.13
2023-01-15T09:19:50.012Z,10.93
2023-01-15T09:22:16.930Z,7.90
2023-01-15T09:24:44.006Z,7.00
2023-01-15T09:27:15.442Z,4.13
2023-01-15T09:29:42.341Z,5.47
2023-01-15T09:32:10.656Z,6.03
2023-01-15T09:34:37.744Z,6.55
2023-01-15T09:37:04.668Z,4.97
2023-01-15T09:39:32.102Z,6.55
2023-01-15T09:42:17.794Z,5.53
2023-01-15T09:45:05.722Z,6.05
2023-01-15T09:47:59.222Z,5.75
2023-01-15T09:50:54.962Z,6.70
2023-01-15T09:53:37.228Z,7.55
2023-01-15T09:56:04.998Z,8.18
2023-01-15T09:58:41.245Z,5.53
2023-01-15T10:01:17.356Z,6.10
2023-01-15T10:03:50.655Z,7.25
2023-01-15T10:06:26.578Z,5.68
2023-01-15T10:09:14.005Z,4.45
2023-01-15T10:12:05.121Z,7.40
2023-01-15T10:15:04.429Z,6.57
2023-01-15T10:17:42.183Z,5.28
2023-01-15T10:20:36.802Z,6.38
2023-01-15T10:23:32.819Z,9.50
2023-01-15T10:25:59.757Z,5.25
2023-01-15T10:28:45.895Z,5.00
2023-01-15T10:31:42.324Z,4.38
2023-01-15T10:34:31.444Z,5.03
2023-01-15T10:37:54.300Z,5.03
2023-01-15T10:40:35.851Z,5.20
2023-01-15T10:43:43.977Z,4.25
2023-01-15T10:46:19.544Z,3.40
2023-01-15T10:48:51.831Z,3.53
2023-01-15T10:51:22.505Z,8.70
2023-01-15T10:53:55.518Z,6.75
2023-01-15T10:56:37.475Z,9.00
2023-01-15T10:59:24.717Z,4.88
2023-01-15T11:01:54.901Z,3.65
2023-01-15T11:04:22.780Z,7.22
2023-01-15T11:06:50.047Z,5.90
2023-01-15T11:09:24.155Z,3.20
2023-01-15T11:14:57.630Z,3.97
2023-01-15T11:17:51.289Z,8.15
2023-01-15T11:20:45.528Z,5.22
2023-01-15T11:23:20.112Z,5.50
2023-01-15T11:25:53.574Z,4.10
2023-01-15T11:28:32.433Z,3.90
2023-01-15T11:30:59.642Z,3.75
2023-01-15T11:33:28.653Z,7.10
2023-01-15T11:36:02.119Z,6.60
2023-01-15T11:38:46.677Z,4.47
2023-01-15T11:44:14.465Z,6.88
2023-01-15T11:47:00.196Z,8.43
2023-01-15T11:49:45.567Z,8.65
2023-01-15T11:52:19.644Z,4.05
2023-01-15T11:54:51.689Z,9.65
2023-01-15T11:57:33.783Z,4.90
2023-01-15T12:00:05.326Z,6.00
2023-01-15T12:02:47.773Z,13.32
2023-01-15T12:05:36.008Z,7.68
2023-01-15T12:08:16.921Z,14.77
2023-01-15T12:11:25.240Z,14.73
2023-01-15T12:14:30.396Z,10.15
2023-01-15T12:17:12.966Z,16.08
2023-01-15T12:19:50.577Z,15.25
2023-01-15T12:22:40.200Z,11.05
2023-01-15T12:25:42.675Z,7.93
2023-01-15T12:28:26.838Z,8.95
2023-01-15T12:31:09.192Z,19.08
2023-01-15T12:33:43.555Z,9.32
2023-01-15T12:44:11.672Z,11.38
2023-01-15T12:47:07.803Z,8.88
2023-01-15T12:49:47.660Z,13.48
2023-01-15T12:52:24.470Z,9.65
2023-01-15T12:55:02.221Z,9.88
2023-01-15T12:57:40.383Z,15.60
2023-01-15T13:04:13.306Z,18.92
2023-01-15T13:06:54.707Z,13.18
2023-01-15T13:10:32.599Z,11.02
2023-01-15T13:13:26.647Z,14.77
2023-01-15T13:16:20.315Z,15.10
2023-01-15T13:19:28.339Z,11.02
2023-01-15T13:22:04.214Z,14.32
2023-01-15T13:25:03.196Z,13.95
2023-01-15T13:31:10.640Z,15.77
2023-01-15T13:33:49.543Z,15.32
2023-01-15T13:36:29.005Z,12.38
2023-01-15T13:39:13.067Z,16.58
2023-01-15T13:41:59.768Z,13.88
2023-01-15T13:44:35.769Z,15.73
2023-01-15T13:47:19.028Z,11.68
2023-01-15T13:49:50.438Z,10.60
2023-01-15T13:52:37.863Z,12.93
2023-01-15T13:55:38.992Z,14.05
2023-01-15T13:58:22.695Z,13.02
2023-01-15T14:01:59.945Z,12.35
2023-01-15T14:04:38.824Z,11.07
2023-01-15T14:07:20.322Z,12.27
2023-01-15T14:09:47.941Z,10.00
2023-01-15T14:12:45.068Z,13.15
2023-01-15T14:15:52.721Z,9.43
2023-01-15T14:18:38.108Z,11.50
2023-01-15T14:23:58.969Z,12.05
2023-01-15T14:26:25.899Z,13.15
2023-01-15T14:29:54.239Z,13.13
2023-01-15T14:32:21.226Z,7.40
2023-01-15T14:35:32.229Z,10.15
2023-01-15T14:38:06.485Z,17.85
2023-01-15T14:41:29.667Z,10.60
2023-01-15T14:44:01.629Z,7.93
2023-01-15T14:49:46.225Z,12.60
2023-01-15T14:52:13.579Z,5.63
2023-01-15T14:54:44.047Z,10.20
2023-01-15T14:57:11.484Z,10.77
2023-01-15T15:03:02.677Z,8.50
2023-01-15T15:05:31.634Z,12.18
2023-01-15T15:08:01.353Z,12.15
2023-01-15T15:11:14.452Z,6.32
2023-01-15T15:13:46.888Z,6.95
2023-01-15T15:16:27.122Z,7.43
2023-01-15T15:19:07.207Z,14.10
2023-01-15T15:21:40.478Z,11.25
2023-01-15T15:24:32.833Z,6.72
2023-01-15T15:27:15.897Z,11.75
2023-01-15T15:29:46.516Z,8.70
2023-01-15T15:32:22.532Z,7.90
2023-01-15T15:34:52.165Z,12.27
2023-01-15T15:37:23.397Z,8.93
2023-01-15T15:40:13.171Z,8.68
2023-01-15T15:43:06.896Z,13.20
2023-01-15T15:45:52.579Z,7.55
2023-01-15T15:49:10.376Z,6.88
2023-01-15T15:51:53.120Z,3.25
2023-01-15T15:54:31.715Z,5.90
2023-01-15T15:57:09.778Z,2.63
2023-01-15T15:59:48.082Z,5.57
2023-01-15T16:02:36.472Z,4.43
2023-01-15T16:05:19.167Z,7.38
2023-01-15T16:07:46.838Z,4.00
2023-01-15T16:10:27.615Z,4.43
2023-01-15T16:12:58.253Z,4.75
2023-01-15T16:15:34.327Z,2.85
2023-01-15T16:18:24.465Z,1.77
2023-01-15T16:20:54.772Z,1.83
2023-01-15T16:23:28.507Z,1.83
2023-01-15T16:26:21.844Z,2.35
2023-01-15T16:29:18.249Z,3.97
2023-01-15T16:31:45.767Z,3.00
2023-01-15T16:34:20.246Z,3.92
2023-01-15T16:40:14.515Z,3.33
2023-01-15T16:42:45.504Z,2.97
2023-01-15T16:45:32.352Z,1.80
2023-01-15T16:48:38.565Z,3.30
2023-01-15T16:51:52.682Z,3.40
2023-01-15T16:55:46.491Z,2.40
2023-01-15T16:58:13.606Z,3.63
2023-01-15T17:00:51.773Z,1.90
2023-01-15T17:03:24.413Z,4.15
2023-01-15T17:06:05.975Z,4.38
2023-01-15T17:08:56.639Z,3.78
2023-01-15T17:11:30.151Z,3.03
2023-01-15T17:14:20.835Z,3.17
2023-01-15T17:17:26.010Z,3.38
2023-01-15T17:24:12.741Z,8.37
2023-01-15T17:26:39.819Z,8.13
2023-01-15T17:29:06.758Z,6.78
2023-01-15T17:35:48.967Z,4.85
2023-01-15T17:38:20.551Z,5.60
2023-01-15T17:40:48.572Z,6.95
2023-01-15T17:43:16.305Z,5.03
2023-01-15T17:45:43.602Z,5.63
2023-01-15T17:52:41.897Z,4.43
2023-01-15T18:07:02.155Z,2.72
2023-01-15T18:09:56.477Z,3.03
2023-01-15T18:12:31.276Z,2.65
2023-01-15T18:14:58.409Z,3.25
2023-01-15T18:17:29.722Z,2.55
2023-01-15T18:19:56.938Z,1.70
2023-01-15T18:22:24.109Z,2.38
2023-01-15T18:24:51.380Z,3.85
2023-01-15T18:27:18.289Z,1.92
2023-01-15T18:29:45.253Z,2.63
2023-01-15T18:32:13.416Z,3.72
2023-01-15T18:34:43.540Z,2.45
2023-01-15T18:37:10.552Z,1.30
2023-01-15T18:39:37.477Z,1.85
2023-01-15T18:42:05.428Z,2.22
2023-01-15T18:44:51.824Z,2.08
2023-01-15T18:47:18.759Z,1.67
2023-01-15T18:49:46.661Z,1.65
2023-01-15T18:52:34.484Z,2.95
2023-01-15T18:55:01.472Z,3.65
2023-01-15T18:57:28.436Z,3.45
2023-01-15T18:59:55.415Z,2.08
2023-01-15T19:02:22.528Z,1.77
2023-01-15T19:04:49.811Z,1.98
2023-01-15T19:07:17.758Z,1.27
2023-01-15T19:09:44.777Z,1.95
2023-01-15T19:12:12.079Z,1.40
2023-01-15T19:14:57.575Z,1.80
2023-01-15T19:17:44.189Z,1.75
2023-01-15T19:20:18.871Z,2.53
2023-01-15T19:23:06.738Z,3.05
2023-01-15T19:25:45.131Z,1.45
2023-01-15T19:28:15.990Z,2.28
2023-01-15T19:31:04.456Z,2.17
2023-01-15T19:33:31.922Z,3.53
2023-01-15T19:35:58.956Z,5.55
2023-01-15T19:38:26.017Z,2.00
2023-01-15T19:40:52.962Z,3.28
2023-01-15T19:43:38.694Z,1.23
2023-01-15T19:46:27.094Z,5.35
2023-01-15T19:49:13.237Z,5.47
2023-01-15T19:52:00.213Z,2.72
2023-01-15T19:54:45.590Z,1.65
2023-01-15T19:57:12.621Z,1.90
2023-01-15T19:59:39.531Z,9.60
2023-01-15T20:02:06.567Z,2.35
2023-01-15T20:04:33.526Z,4.80
2023-01-15T20:07:00.779Z,2.97
2023-01-15T20:09:27.755Z,2.65
2023-01-15T20:12:14.705Z,4.50
2023-01-15T20:14:41.661Z,1.60
2023-01-15T20:17:08.699Z,1.80
2023-01-15T20:19:35.713Z,2.42
2023-01-15T20:22:02.627Z,2.15
2023-01-15T20:24:29.691Z,2.80
2023-01-15T20:26:56.817Z,2.72
2023-01-15T20:29:23.786Z,3.10
2023-01-15T20:31:50.717Z,2.58
2023-01-15T20:34:18.083Z,3.08
2023-01-15T20:36:45.168Z,2.67
2023-01-15T20:39:22.402Z,2.42
2023-01-15T20:42:07.892Z,3.53
2023-01-15T20:44:55.406Z,1.40
2023-01-15T20:47:46.452Z,5.80
2023-01-15T20:50:16.207Z,4.13
2023-01-15T20:52:48.282Z,2.92
2023-01-15T20:55:16.697Z,4.53
2023-01-15T20:57:44.182Z,6.22
2023-01-15T21:00:17.634Z,3.45
2023-01-15T21:02:45.478Z,2.90
2023-01-15T21:05:12.501Z,4.45
2023-01-15T21:07:39.655Z,4.70
2023-01-15T21:10:09.070Z,7.57
2023-01-15T21:12:36.119Z,7.53
2023-01-15T21:15:03.317Z,4.07
2023-01-15T21:17:31.476Z,4.10
2023-01-15T21:19:58.494Z,6.78
2023-01-15T21:22:30.581Z,6.25
2023-01-15T21:24:58.545Z,8.70
2023-01-15T21:27:25.552Z,5.43
2023-01-15T21:29:52.768Z,10.15
2023-01-15T21:32:19.867Z,10.85
2023-01-15T21:34:48.619Z,8.02
2023-01-15T21:37:16.630Z,9.68
2023-01-15T21:39:43.561Z,7.47
2023-01-15T21:42:39.925Z,6.90
2023-01-15T21:45:08.448Z,12.40
2023-01-15T21:47:37.063Z,12.13
2023-01-15T21:50:05.679Z,6.97
2023-01-15T21:52:34.151Z,13.73
2023-01-15T21:55:01.232Z,7.00
2023-01-15T21:57:31.552Z,15.85
2023-01-15T21:59:58.574Z,5.18
2023-01-15T22:02:25.690Z,7.25
2023-01-15T22:04:52.873Z,6.00
2023-01-15T22:07:19.862Z,5.15
2023-01-15T22:09:46.805Z,6.20
2023-01-15T22:12:14.105Z,10.02
2023-01-15T22:14:41.106Z,4.00
2023-01-15T22:17:08.637Z,5.63
2023-01-15T22:19:35.637Z,6.68
2023-01-15T22:22:08.940Z,6.60
2023-01-15T22:24:37.786Z,14.02
2023-01-15T22:27:06.648Z,14.85
2023-01-15T22:29:38.630Z,8.55
2023-01-15T22:32:10.485Z,9.63
2023-01-15T22:34:37.427Z,2.88
2023-01-15T22:37:04.468Z,6.45
2023-01-15T22:39:31.992Z,5.60
2023-01-15T22:42:17.571Z,13.88
2023-01-15T22:44:45.223Z,10.98
2023-01-15T22:47:13.789Z,3.40
2023-01-15T22:49:40.686Z,6.00
2023-01-15T22:52:07.688Z,9.82
2023-01-15T22:54:34.771Z,9.85
2023-01-15T22:57:02.073Z,6.90
2023-01-15T22:59:29.021Z,12.50
2023-01-15T23:01:56.068Z,3.33
2023-01-15T23:04:25.317Z,5.10
2023-01-15T23:06:53.135Z,2.70
2023-01-15T23:09:22.373Z,6.90
2023-01-15T23:11:51.545Z,5.28
2023-01-15T23:14:19.983Z,3.75
2023-01-15T23:16:47.080Z,5.25
2023-01-15T23:19:14.646Z,5.50
2023-01-15T23:21:42.249Z,3.22
2023-01-15T23:24:10.549Z,2.63
2023-01-15T23:26:37.733Z,7.45
2023-01-15T23:29:06.529Z,4.72
2023-01-15T23:31:34.090Z,3.25
2023-01-15T23:34:01.589Z,7.18
2023-01-15T23:36:28.541Z,6.88
2023-01-15T23:38:55.538Z,4.00
2023-01-15T23:41:44.140Z,3.27
2023-01-15T23:44:38.153Z,4.95
2023-01-15T23:47:09.265Z,2.10
2023-01-15T23:49:39.865Z,5.75
2023-01-15T23:52:06.931Z,3.20
2023-01-15T23:54:33.784Z,3.90
2023-01-15T23:57:02.178Z,5.85
2023-01-15T23:59:29.796Z,4.68
